Time;durP1;ratioP1;P1;durP2;ratioP2;P2;SDS_P1;SDS_P2;PMS_P1;PMS_P2;Temp;Humidity;BMP_temperature;BMP_pressure;BME280_temperature;BME280_humidity;BME280_pressure;Samples;Min_cycle;Max_cycle;Signal;HPM_P1;HPM_P2
2022/11/08 00:19:18;;;;;;;1.25;1.15;;;;;;;7.67;68.14;101086.34;18557010;32;20526;-59
2022/11/08 00:29:21;;;;;;;0.95;0.95;;;;;;;7.69;68.14;101089.91;18556664;32;20119;-59
2022/11/08 00:39:26;;;;;;;1.00;1.00;;;;;;;7.50;69.11;101094.69;18556631;32;20176;-59
2022/11/08 00:49:29;;;;;;;0.90;0.90;;;;;;;7.52;68.61;101087.81;18555631;32;20503;-59
2022/11/08 00:59:34;;;;;;;0.85;0.85;;;;;;;7.48;68.79;101083.38;18555099;32;20145;-59
2022/11/08 01:09:37;;;;;;;1.73;1.62;;;;;;;7.49;68.86;101087.72;18612601;31;20092;-59
2022/11/08 01:19:41;;;;;;;1.30;1.25;;;;;;;7.57;68.52;101096.56;18620195;31;20441;-59
2022/11/08 01:29:44;;;;;;;0.70;0.70;;;;;;;7.69;68.68;101089.91;18600614;31;20091;-59
2022/11/08 01:39:49;;;;;;;0.60;0.60;;;;;;;7.71;68.85;101083.00;18589728;31;20457;-59
2022/11/08 01:49:53;;;;;;;2.05;1.90;;;;;;;7.65;68.66;101078.56;18561907;32;20459;-59
2022/11/08 01:59:59;;;;;;;1.40;1.30;;;;;;;7.64;68.38;101079.41;18562940;32;20156;-59
2022/11/08 02:10:03;;;;;;;1.45;1.35;;;;;;;7.54;69.17;101075.72;18561776;32;20095;-59
2022/11/08 02:20:08;;;;;;;0.98;0.98;;;;;;;7.78;68.87;101069.28;18562021;32;20092;-59
2022/11/08 02:30:13;;;;;;;0.80;0.80;;;;;;;7.66;69.85;101069.03;18560783;32;20096;-59
2022/11/08 02:40:16;;;;;;;0.70;0.70;;;;;;;7.73;69.32;101063.09;18560038;32;20424;-59
2022/11/08 02:50:21;;;;;;;1.00;1.00;;;;;;;7.89;68.72;101059.97;18560044;32;20112;-59
2022/11/08 03:00:24;;;;;;;1.80;1.70;;;;;;;7.87;68.93;101061.69;18559797;32;20092;-59
2022/11/08 03:10:30;;;;;;;0.73;0.73;;;;;;;7.95;69.34;101060.91;18559638;32;20096;-58
2022/11/08 03:20:33;;;;;;;0.80;0.80;;;;;;;8.10;68.88;101061.22;18559413;32;20093;-59
2022/11/08 03:30:37;;;;;;;0.80;0.80;;;;;;;7.98;69.37;101067.06;18559047;32;20110;-59
2022/11/08 03:40:41;;;;;;;0.80;0.80;;;;;;;8.16;68.96;101074.34;18558933;32;20396;-59
2022/11/08 03:50:45;;;;;;;1.37;1.27;;;;;;;8.24;69.10;101073.59;18557608;32;20092;-59
2022/11/08 04:00:48;;;;;;;1.62;1.52;;;;;;;8.31;69.05;101071.16;18558494;31;20120;-60
2022/11/08 04:10:55;;;;;;;1.45;1.17;;;;;;;8.35;69.43;101066.00;18558191;32;20092;-59
2022/11/08 04:21:18;;;;;;;0.93;0.88;;;;;;;8.26;69.36;101066.72;18558211;31;20157;-59
2022/11/08 04:31:23;;;;;;;0.60;0.60;;;;;;;8.32;69.25;101067.69;18556892;32;20387;-59
2022/11/08 04:41:26;;;;;;;2.30;1.90;;;;;;;8.15;69.85;101056.97;18556108;32;20088;-59
2022/11/08 04:51:32;;;;;;;1.33;0.80;;;;;;;8.23;69.54;101066.66;18555582;32;20115;-59
2022/11/08 05:01:36;;;;;;;3.72;2.12;;;;;;;8.24;69.62;101058.88;18555254;32;20107;-60
2022/11/08 05:11:40;;;;;;;0.73;0.73;;;;;;;8.38;69.44;101066.03;18563128;32;20097;-59
2022/11/08 05:32:11;;;;;;;0.80;0.80;;;;;;;8.40;69.96;101067.81;18422509;32;20116;-59
2022/11/08 05:42:14;;;;;;;0.85;0.85;;;;;;;8.44;69.96;101074.84;18420265;32;20492;-59
2022/11/08 05:52:19;;;;;;;1.20;1.20;;;;;;;8.50;69.76;101099.22;18357950;32;20161;-59
2022/11/08 06:02:22;;;;;;;0.70;0.70;;;;;;;8.66;69.44;101093.47;18427803;31;20092;-59
2022/11/08 06:12:27;;;;;;;1.30;1.23;;;;;;;8.64;69.47;101095.16;18569421;31;20162;-59
2022/11/08 06:22:31;;;;;;;6.10;2.00;;;;;;;8.48;69.96;101104.37;18568941;31;20114;-59
2022/11/08 06:32:35;;;;;;;2.35;1.87;;;;;;;8.53;70.39;101115.78;18612224;31;20461;-59
2022/11/08 06:42:39;;;;;;;0.77;0.77;;;;;;;8.54;70.52;101125.34;18563043;31;20104;-59
2022/11/08 06:52:43;;;;;;;0.90;0.90;;;;;;;7.43;74.09;101129.16;18560924;31;20153;-59
2022/11/08 07:02:52;;;;;;;0.70;0.70;;;;;;;7.97;73.07;101134.66;18558684;31;20110;-59
2022/11/08 07:13:00;;;;;;;0.90;0.90;;;;;;;8.47;71.37;101149.47;18577784;31;20162;-59
2022/11/08 07:23:03;;;;;;;1.75;1.60;;;;;;;8.56;71.32;101148.81;18578404;31;20471;-59
2022/11/08 07:33:08;;;;;;;2.37;1.70;;;;;;;8.85;70.33;101141.50;18572340;31;20128;-59
2022/11/08 07:43:11;;;;;;;0.73;0.73;;;;;;;8.97;70.27;101145.16;18562903;31;20371;-59
2022/11/08 07:53:16;;;;;;;0.82;0.82;;;;;;;8.93;69.91;101136.44;18605500;31;20169;-59
2022/11/08 08:03:20;;;;;;;0.65;0.65;;;;;;;9.10;70.27;101146.22;18566428;31;20115;-59
2022/11/08 08:13:25;;;;;;;0.90;0.90;;;;;;;9.32;69.99;101154.38;18594044;31;20356;-59
2022/11/08 08:23:28;;;;;;;0.85;0.85;;;;;;;9.46;69.53;101163.28;18576967;31;20432;-59
2022/11/08 08:33:33;;;;;;;1.95;1.85;;;;;;;9.40;70.11;101160.59;18566401;31;20119;-59
2022/11/08 08:43:37;;;;;;;0.50;0.50;;;;;;;9.52;70.39;101163.38;18554682;31;20148;-59
2022/11/08 08:53:41;;;;;;;0.60;0.60;;;;;;;8.91;72.65;101156.34;18615120;31;20083;-59
2022/11/08 09:03:44;;;;;;;2.03;0.90;;;;;;;8.99;72.82;101172.97;18620345;31;20148;-59
2022/11/08 09:13:49;;;;;;;0.60;0.60;;;;;;;9.56;71.48;101179.94;18619561;31;20127;-59
2022/11/08 09:23:52;;;;;;;0.90;0.90;;;;;;;9.85;70.25;101182.06;18618429;31;20102;-59
2022/11/08 09:33:56;;;;;;;1.30;1.20;;;;;;;10.00;70.00;101200.50;18618501;31;20099;-59
2022/11/08 09:44:10;;;;;;;0.95;0.93;;;;;;;10.18;70.30;101188.56;18617303;31;20107;-59
2022/11/08 09:54:18;;;;;;;1.17;1.10;;;;;;;10.28;70.85;101187.81;18612842;31;20169;-60
2022/11/08 10:04:23;;;;;;;1.95;1.30;;;;;;;10.61;70.08;101176.91;18599791;31;20116;-59
2022/11/08 10:14:37;;;;;;;3.10;2.90;;;;;;;10.63;69.96;101167.34;18591673;31;20164;-59
2022/11/08 10:24:58;;;;;;;0.85;0.73;;;;;;;10.74;70.18;101167.44;18579136;31;20209;-59
2022/11/08 10:35:09;;;;;;;0.70;0.70;;;;;;;10.99;69.94;101151.97;18595062;31;20106;-60
2022/11/08 10:45:12;;;;;;;0.77;0.77;;;;;;;11.15;69.84;101147.75;18627050;31;20132;-59
2022/11/08 10:55:29;;;;;;;4.20;2.90;;;;;;;11.46;69.64;101137.50;18626957;31;20103;-59
2022/11/08 11:05:34;;;;;;;0.52;0.52;;;;;;;11.88;69.24;101133.34;18624738;31;20087;-59
2022/11/08 11:15:45;;;;;;;2.55;1.50;;;;;;;11.73;68.92;101126.31;18625074;31;20111;-59
2022/11/08 11:25:50;;;;;;;1.95;1.67;;;;;;;12.21;68.81;101117.78;18612043;31;20116;-59
2022/11/08 11:35:56;;;;;;;0.73;0.73;;;;;;;12.19;68.06;101106.44;18586601;31;20102;-59
2022/11/08 11:46:05;;;;;;;1.50;1.40;;;;;;;12.42;67.99;101108.22;18589875;31;20084;-59
2022/11/08 11:56:31;;;;;;;2.30;1.33;;;;;;;12.39;67.29;101105.59;18618200;31;20152;-60
2022/11/08 12:06:42;;;;;;;2.17;1.83;;;;;;;12.61;67.20;101085.56;18589981;31;20108;-59
2022/11/08 12:16:55;;;;;;;2.27;1.67;;;;;;;12.68;67.47;101074.22;18586545;31;20117;-60
2022/11/08 12:27:01;;;;;;;2.25;2.05;;;;;;;12.83;66.76;101060.22;18593333;31;20136;-60
2022/11/08 12:37:14;;;;;;;1.08;1.02;;;;;;;12.93;66.77;101054.97;18574651;31;20092;-59
2022/11/08 12:47:24;;;;;;;0.57;0.57;;;;;;;13.17;66.21;101049.66;18583525;31;20509;-60
2022/11/08 12:57:30;;;;;;;1.30;1.02;;;;;;;13.26;66.65;101047.91;18580016;31;20088;-60
2022/11/08 13:07:44;;;;;;;2.30;1.15;;;;;;;13.55;65.50;101039.97;18591810;31;20428;-60
2022/11/08 13:18:24;;;;;;;1.12;0.82;;;;;;;13.83;65.07;101031.97;18615038;31;20472;-60
2022/11/08 13:28:51;;;;;;;1.00;0.93;;;;;;;13.94;64.79;101018.78;18593833;31;20122;-60
2022/11/08 13:39:04;;;;;;;1.92;1.77;;;;;;;13.00;67.54;101027.91;18583032;31;20079;-60
2022/11/08 13:49:18;;;;;;;1.08;0.73;;;;;;;12.41;70.57;101025.31;18586624;31;20450;-59
2022/11/08 13:59:58;;;;;;;1.42;1.20;;;;;;;11.57;73.31;101030.34;18605360;31;20116;-59
2022/11/08 14:10:11;;;;;;;1.15;0.98;;;;;;;11.15;74.59;101036.25;18591044;31;20182;-60
2022/11/08 14:20:25;;;;;;;1.17;0.90;;;;;;;11.03;75.06;101024.00;18566267;31;20103;-59
2022/11/08 14:30:30;;;;;;;2.78;1.85;;;;;;;12.13;70.83;101015.69;18601986;31;20522;-59
2022/11/08 14:40:34;;;;;;;1.02;0.93;;;;;;;11.89;70.08;101022.59;18613978;31;20429;-59
2022/11/08 14:50:38;;;;;;;0.80;0.80;;;;;;;11.32;72.20;101018.03;18599399;31;20093;-59
2022/11/08 15:00:43;;;;;;;0.90;0.90;;;;;;;11.05;72.66;101018.78;18561880;31;20110;-59
2022/11/08 15:10:56;;;;;;;2.83;1.70;;;;;;;11.38;71.84;101022.41;18562314;31;20204;-59
2022/11/08 15:21:02;;;;;;;4.68;3.33;;;;;;;11.56;72.58;101031.22;18586047;31;20100;-60
2022/11/08 15:31:11;;;;;;;0.60;0.60;;;;;;;11.49;71.28;101035.53;18626265;31;20088;-59
2022/11/08 15:41:32;;;;;;;1.12;1.02;;;;;;;10.96;73.38;101045.75;18626398;31;20106;-60
2022/11/08 15:51:37;;;;;;;0.50;0.50;;;;;;;10.36;76.99;101039.16;18586111;31;20131;-60
2022/11/08 16:01:44;;;;;;;0.60;0.60;;;;;;;10.01;77.50;101050.09;18586025;31;20096;-59
2022/11/08 16:11:49;;;;;;;1.02;1.02;;;;;;;9.93;78.46;101054.37;18621486;31;20374;-59
2022/11/08 16:21:53;;;;;;;0.65;0.65;;;;;;;10.25;76.93;101048.62;18592348;31;161304;-60
2022/11/08 16:31:58;;;;;;;0.80;0.80;;;;;;;10.15;77.89;101045.03;18613338;31;20114;-60
2022/11/08 16:42:01;;;;;;;2.00;1.17;;;;;;;10.16;76.97;101040.72;18567421;31;20101;-60
2022/11/08 16:52:08;;;;;;;1.87;1.33;;;;;;;10.73;74.90;101066.47;18549339;31;20088;-60
2022/11/08 17:02:20;;;;;;;0.55;0.55;;;;;;;10.83;73.75;101065.66;18581742;31;20092;-60
2022/11/08 17:12:24;;;;;;;1.85;0.77;;;;;;;11.42;71.74;101063.41;18622713;31;20096;-59
2022/11/08 17:22:28;;;;;;;0.80;0.70;;;;;;;10.98;73.30;101072.75;18617154;31;20129;-60
2022/11/08 17:32:34;;;;;;;0.90;0.80;;;;;;;10.90;73.31;101071.81;18622484;31;20096;-60
2022/11/08 17:42:38;;;;;;;2.45;2.25;;;;;;;10.79;74.71;101071.72;18589944;31;20136;-60
2022/11/08 17:52:44;;;;;;;1.08;1.08;;;;;;;10.33;77.13;101067.81;18591259;31;20755;-60
2022/11/08 18:02:48;;;;;;;1.65;1.52;;;;;;;11.51;72.48;101063.44;18566040;31;20627;-60
2022/11/08 18:12:52;;;;;;;1.83;1.73;;;;;;;11.12;74.54;101069.34;18617631;31;20176;-59
2022/11/08 18:22:55;;;;;;;1.25;1.12;;;;;;;11.83;71.78;101060.94;18627482;31;20387;-60
2022/11/08 18:33:00;;;;;;;1.65;1.55;;;;;;;11.94;71.26;101061.84;18627366;31;20092;-60
2022/11/08 18:43:03;;;;;;;2.78;1.95;;;;;;;12.01;70.70;101057.53;18627003;31;20110;-60
2022/11/08 18:53:08;;;;;;;3.28;2.25;;;;;;;12.05;70.60;101057.56;18618089;31;20107;-60
2022/11/08 19:03:11;;;;;;;0.82;0.82;;;;;;;12.02;70.68;101047.06;18558711;32;20372;-60
2022/11/08 19:13:17;;;;;;;0.93;0.93;;;;;;;10.87;76.65;101049.16;18559857;32;20103;-59
2022/11/08 19:23:24;;;;;;;2.40;1.52;;;;;;;11.78;72.57;101040.00;18559338;32;20104;-60
2022/11/08 19:33:31;;;;;;;1.02;0.90;;;;;;;11.89;72.22;101043.53;18569540;31;20192;-60
2022/11/08 19:43:35;;;;;;;2.05;1.42;;;;;;;12.08;71.48;101059.31;18561350;31;20096;-60
2022/11/08 19:53:40;;;;;;;1.70;0.82;;;;;;;12.25;70.85;101064.59;18572519;31;20092;-59
2022/11/08 20:03:43;;;;;;;1.20;1.12;;;;;;;11.68;71.92;101062.66;18581537;31;20115;-60
2022/11/08 20:13:48;;;;;;;0.55;0.55;;;;;;;12.12;70.58;101068.03;18606863;31;20139;-59
2022/11/08 20:23:51;;;;;;;0.80;0.80;;;;;;;10.45;78.37;101081.91;18608396;31;20111;-60
2022/11/08 20:33:56;;;;;;;3.22;1.35;;;;;;;10.81;76.24;101080.44;18588280;31;20114;-60
2022/11/08 20:43:59;;;;;;;1.08;0.70;;;;;;;10.79;76.64;101093.50;18575691;31;20100;-60
2022/11/08 20:54:04;;;;;;;2.10;1.40;;;;;;;10.59;76.74;101084.63;18588080;31;20100;-60
2022/11/08 21:04:07;;;;;;;4.05;2.78;;;;;;;11.03;75.54;101080.63;18623821;31;20080;-59
2022/11/08 21:14:11;;;;;;;3.35;2.40;;;;;;;11.86;72.17;101088.00;18570277;31;20092;-60
2022/11/08 21:24:15;;;;;;;0.40;0.40;;;;;;;11.98;71.46;101087.16;18587215;31;20091;-60
2022/11/08 21:34:20;;;;;;;0.50;0.50;;;;;;;12.16;70.60;101088.13;18621936;31;20114;-59
2022/11/08 21:44:23;;;;;;;0.88;0.75;;;;;;;12.17;70.66;101084.63;18622191;31;20096;-59
2022/11/08 21:54:28;;;;;;;0.70;0.70;;;;;;;12.00;70.99;101088.03;18584030;31;20488;-59
2022/11/08 22:04:31;;;;;;;0.52;0.52;;;;;;;11.29;73.85;101077.28;18564879;31;20104;-59
2022/11/08 22:14:36;;;;;;;0.82;0.65;;;;;;;12.03;70.94;101072.38;18564541;32;20505;-59
2022/11/08 22:24:39;;;;;;;0.93;0.93;;;;;;;11.92;71.31;101079.28;18564086;32;20096;-59
2022/11/08 22:34:44;;;;;;;0.52;0.52;;;;;;;12.16;70.23;101072.44;18578361;31;20091;-59
2022/11/08 22:44:47;;;;;;;1.15;1.08;;;;;;;10.76;76.03;101071.69;18629483;31;20100;-59
2022/11/08 22:54:51;;;;;;;1.48;1.37;;;;;;;10.40;77.73;101077.47;18573999;31;20145;-59
2022/11/08 23:04:54;;;;;;;2.45;1.20;;;;;;;11.22;74.23;101069.41;18562871;32;20115;-59
2022/11/08 23:25:19;;;;;;;;;;;;;;;11.10;73.91;101072.81;18563091;32;20154;-59
2022/11/08 23:35:24;;;;;;;0.95;0.68;;;;;;;10.58;77.06;101065.47;18562832;32;19971;-59
2022/11/08 23:45:27;;;;;;;1.00;0.62;;;;;;;10.72;76.68;101068.19;18562360;32;20397;-59
2022/11/08 23:55:31;;;;;;;0.90;0.90;;;;;;;10.19;78.75;101079.88;18562147;32;20092;-59
